createdAt,value
2018-07-29T00:00:06.755Z,5.80
2018-07-29T00:02:41.850Z,6.40
2018-07-29T00:05:16.926Z,5.83
2018-07-29T00:07:51.917Z,7.23
2018-07-29T00:10:26.295Z,5.13
2018-07-29T00:13:01.020Z,5.53
2018-07-29T00:15:36.090Z,6.10
2018-07-29T00:18:10.953Z,6.73
2018-07-29T00:20:45.143Z,5.70
2018-07-29T00:23:19.693Z,6.60
2018-07-29T00:25:54.905Z,5.63
2018-07-29T00:28:29.922Z,6.27
2018-07-29T00:31:05.601Z,6.43
2018-07-29T00:33:40.342Z,6.30
2018-07-29T00:36:15.018Z,6.00
2018-07-29T00:38:49.846Z,7.20
2018-07-29T00:41:24.379Z,8.10
2018-07-29T00:43:59.129Z,6.30
2018-07-29T00:46:33.878Z,6.73
2018-07-29T00:49:08.610Z,6.67
2018-07-29T00:51:43.278Z,6.20
2018-07-29T00:54:18.182Z,6.47
2018-07-29T00:56:52.743Z,6.10
2018-07-29T00:59:27.458Z,7.70
2018-07-29T01:02:03.008Z,6.20
2018-07-29T01:04:37.929Z,7.80
2018-07-29T01:07:12.659Z,5.60
2018-07-29T01:09:47.925Z,6.97
2018-07-29T01:12:22.073Z,11.93
2018-07-29T01:14:56.919Z,6.43
2018-07-29T01:17:31.506Z,5.83
2018-07-29T01:20:06.484Z,6.20
2018-07-29T01:22:40.940Z,6.50
2018-07-29T01:25:16.034Z,9.17
2018-07-29T01:27:51.077Z,6.40
2018-07-29T01:30:25.633Z,6.27
2018-07-29T01:32:59.850Z,6.10
2018-07-29T01:35:34.056Z,6.80
2018-07-29T01:38:09.063Z,6.03
2018-07-29T01:40:44.322Z,5.97
2018-07-29T01:43:18.832Z,6.23
2018-07-29T01:45:53.557Z,6.00
2018-07-29T01:48:28.570Z,7.27
2018-07-29T01:51:03.030Z,9.63
2018-07-29T01:53:37.666Z,7.73
2018-07-29T01:56:12.292Z,6.73
2018-07-29T01:58:46.837Z,7.50
2018-07-29T02:01:21.730Z,7.13
2018-07-29T02:03:56.196Z,7.37
2018-07-29T02:06:30.763Z,9.43
2018-07-29T02:09:08.042Z,7.83
2018-07-29T02:11:43.173Z,9.20
2018-07-29T02:14:17.967Z,8.00
2018-07-29T02:16:52.494Z,8.63
2018-07-29T02:19:27.294Z,8.90
2018-07-29T02:22:02.607Z,7.43
2018-07-29T02:24:36.648Z,8.30
2018-07-29T02:27:11.400Z,7.70
2018-07-29T02:29:46.009Z,9.70
2018-07-29T02:32:20.621Z,8.63
2018-07-29T02:34:55.304Z,7.97
2018-07-29T02:37:29.364Z,9.93
2018-07-29T02:40:04.940Z,7.77
2018-07-29T02:42:39.176Z,10.77
2018-07-29T02:45:14.292Z,13.93
2018-07-29T02:47:49.158Z,7.53
2018-07-29T02:50:23.614Z,8.47
2018-07-29T02:52:57.950Z,7.50
2018-07-29T02:55:32.666Z,7.27
2018-07-29T02:58:07.378Z,8.53
2018-07-29T03:00:42.068Z,8.43
2018-07-29T03:03:16.996Z,9.33
2018-07-29T03:05:51.694Z,7.77
2018-07-29T03:08:26.615Z,8.83
2018-07-29T03:11:01.321Z,7.80
2018-07-29T03:13:35.978Z,7.90
2018-07-29T03:16:10.469Z,7.73
2018-07-29T03:18:45.475Z,10.33
2018-07-29T03:21:20.693Z,8.50
2018-07-29T03:23:54.828Z,7.60
2018-07-29T03:26:30.042Z,10.13
2018-07-29T03:29:04.413Z,9.03
2018-07-29T03:31:40.102Z,7.10
2018-07-29T03:34:15.053Z,8.00
2018-07-29T03:36:49.717Z,7.57
2018-07-29T03:39:24.341Z,10.53
2018-07-29T03:41:59.315Z,8.20
2018-07-29T03:44:34.155Z,8.30
2018-07-29T03:47:09.177Z,7.77
2018-07-29T03:49:43.766Z,7.93
2018-07-29T03:52:18.107Z,8.23
2018-07-29T03:54:52.686Z,12.63
2018-07-29T03:57:27.212Z,8.57
2018-07-29T04:00:01.342Z,8.70
2018-07-29T04:02:36.090Z,9.43
2018-07-29T04:05:10.898Z,9.90
2018-07-29T04:07:45.690Z,7.87
2018-07-29T04:10:20.302Z,8.50
2018-07-29T04:12:54.803Z,8.90
2018-07-29T04:15:29.941Z,7.77
2018-07-29T04:18:04.565Z,7.90
2018-07-29T04:20:39.156Z,14.33
2018-07-29T04:23:13.481Z,9.47
2018-07-29T04:25:48.165Z,7.70
2018-07-29T04:28:23.191Z,8.30
2018-07-29T04:30:57.635Z,10.60
2018-07-29T04:33:32.494Z,8.50
2018-07-29T04:36:07.115Z,8.27
2018-07-29T04:38:41.847Z,9.40
2018-07-29T04:41:16.546Z,8.20
2018-07-29T04:43:51.291Z,9.23
2018-07-29T04:46:26.085Z,9.70
2018-07-29T04:49:00.913Z,9.23
2018-07-29T04:51:35.611Z,7.53
2018-07-29T04:54:10.118Z,8.30
2018-07-29T04:56:44.978Z,9.43
2018-07-29T04:59:19.736Z,7.87
2018-07-29T05:01:54.591Z,8.37
2018-07-29T05:04:29.776Z,7.03
2018-07-29T05:07:04.206Z,8.50
2018-07-29T05:09:38.805Z,7.90
2018-07-29T05:12:13.243Z,8.17
2018-07-29T05:14:47.644Z,9.30
2018-07-29T05:17:22.746Z,7.50
2018-07-29T05:19:57.989Z,9.37
2018-07-29T05:22:33.291Z,8.90
2018-07-29T05:25:08.324Z,8.97
2018-07-29T05:27:43.314Z,6.83
2018-07-29T05:30:17.718Z,7.93
2018-07-29T05:32:52.666Z,6.90
2018-07-29T05:35:27.016Z,8.50
2018-07-29T05:38:02.021Z,7.70
2018-07-29T05:40:36.481Z,8.00
2018-07-29T05:43:11.850Z,7.10
2018-07-29T05:45:46.586Z,7.70
2018-07-29T05:48:21.270Z,8.37
2018-07-29T05:50:55.889Z,8.90
2018-07-29T05:53:31.009Z,7.40
2018-07-29T05:56:05.733Z,7.23
2018-07-29T05:58:40.434Z,7.17
2018-07-29T06:01:15.154Z,7.27
2018-07-29T06:03:49.780Z,8.23
2018-07-29T06:06:24.397Z,6.53
2018-07-29T06:08:59.178Z,7.30
2018-07-29T06:11:33.972Z,6.20
2018-07-29T06:14:08.357Z,6.13
2018-07-29T06:16:43.385Z,5.97
2018-07-29T06:19:17.587Z,6.07
2018-07-29T06:21:51.784Z,7.60
2018-07-29T06:24:26.794Z,7.27
2018-07-29T06:27:01.746Z,6.70
2018-07-29T06:29:36.549Z,7.23
2018-07-29T06:32:11.199Z,5.90
2018-07-29T06:34:46.098Z,5.23
2018-07-29T06:37:20.518Z,6.07
2018-07-29T06:39:55.184Z,5.57
2018-07-29T06:42:30.571Z,6.10
2018-07-29T06:45:06.014Z,5.37
2018-07-29T06:47:40.235Z,4.70
2018-07-29T06:50:15.136Z,6.73
2018-07-29T06:52:49.808Z,8.10
2018-07-29T06:55:24.418Z,5.27
2018-07-29T06:57:59.143Z,5.77
2018-07-29T07:00:33.835Z,5.50
2018-07-29T07:03:08.619Z,5.60
2018-07-29T07:05:43.302Z,5.10
2018-07-29T07:08:17.894Z,6.50
2018-07-29T07:10:52.861Z,5.00
2018-07-29T07:13:27.647Z,5.03
2018-07-29T07:16:02.852Z,5.00
2018-07-29T07:18:37.235Z,5.23
2018-07-29T07:21:12.602Z,5.70
2018-07-29T07:23:47.006Z,5.80
2018-07-29T07:26:21.881Z,7.20
2018-07-29T07:28:56.597Z,8.27
2018-07-29T07:31:31.004Z,7.07
2018-07-29T07:34:05.926Z,7.17
2018-07-29T07:36:40.421Z,6.77
2018-07-29T07:39:14.847Z,6.33
2018-07-29T07:41:49.985Z,6.77
2018-07-29T07:44:25.102Z,7.23
2018-07-29T07:46:59.741Z,11.93
2018-07-29T07:49:34.374Z,8.30
2018-07-29T07:52:09.328Z,7.67
2018-07-29T07:54:43.844Z,9.50
2018-07-29T07:57:18.684Z,7.50
2018-07-29T07:59:53.002Z,7.00
2018-07-29T08:02:28.232Z,7.57
2018-07-29T08:05:02.487Z,7.07
2018-07-29T08:07:37.338Z,7.23
2018-07-29T08:10:11.829Z,7.40
2018-07-29T08:12:46.465Z,7.07
2018-07-29T08:15:21.240Z,6.50
2018-07-29T08:17:56.006Z,7.00
2018-07-29T08:20:30.666Z,7.50
2018-07-29T08:23:05.554Z,6.77
2018-07-29T08:25:40.075Z,12.00
2018-07-29T08:28:15.269Z,7.33
2018-07-29T08:30:50.088Z,7.50
2018-07-29T08:33:24.872Z,7.60
2018-07-29T08:35:59.494Z,7.90
2018-07-29T08:38:34.681Z,6.37
2018-07-29T08:41:09.493Z,7.20
2018-07-29T08:43:43.806Z,13.40
2018-07-29T08:46:19.330Z,9.67
2018-07-29T08:48:54.711Z,6.90
2018-07-29T08:51:29.607Z,7.97
2018-07-29T08:54:04.077Z,8.50
2018-07-29T08:56:38.687Z,6.57
2018-07-29T08:59:13.589Z,6.43
2018-07-29T09:01:47.948Z,9.17
2018-07-29T09:04:22.481Z,8.57
2018-07-29T09:06:57.064Z,9.67
2018-07-29T09:09:32.192Z,7.27
2018-07-29T09:12:06.678Z,7.00
2018-07-29T09:14:41.381Z,6.20
2018-07-29T09:17:16.086Z,6.60
2018-07-29T09:19:50.307Z,5.90
2018-07-29T09:22:25.036Z,6.10
2018-07-29T09:25:00.995Z,6.47
2018-07-29T09:27:36.073Z,6.17
2018-07-29T09:30:11.453Z,7.20
2018-07-29T09:32:46.407Z,6.17
2018-07-29T09:35:21.183Z,7.30
2018-07-29T09:37:56.256Z,6.90
2018-07-29T09:40:30.677Z,6.23
2018-07-29T09:43:05.185Z,6.07
2018-07-29T09:45:40.384Z,6.80
2018-07-29T09:48:14.966Z,6.40
2018-07-29T09:50:50.466Z,5.90
2018-07-29T09:53:25.336Z,8.43
2018-07-29T09:55:59.989Z,5.27
2018-07-29T09:58:34.754Z,5.83
2018-07-29T10:01:11.301Z,5.43
2018-07-29T10:03:46.206Z,6.60
2018-07-29T10:06:20.580Z,7.47
2018-07-29T10:08:55.645Z,5.80
2018-07-29T10:11:30.894Z,8.43
2018-07-29T10:14:05.833Z,6.03
2018-07-29T10:16:40.008Z,5.80
2018-07-29T10:19:14.714Z,5.63
2018-07-29T10:21:49.573Z,6.40
2018-07-29T10:24:24.161Z,6.60
2018-07-29T10:26:58.880Z,6.70
2018-07-29T10:29:33.810Z,7.13
2018-07-29T10:32:08.293Z,5.93
2018-07-29T10:34:42.995Z,5.47
2018-07-29T10:37:17.769Z,6.03
2018-07-29T10:39:52.557Z,6.43
2018-07-29T10:42:27.196Z,5.40
2018-07-29T10:45:02.152Z,5.60
2018-07-29T10:47:36.809Z,6.10
2018-07-29T10:50:11.670Z,6.40
2018-07-29T10:52:47.463Z,5.27
2018-07-29T10:55:21.762Z,8.30
2018-07-29T10:57:56.745Z,7.17
2018-07-29T11:00:31.213Z,6.77
2018-07-29T11:03:05.927Z,6.27
2018-07-29T11:05:40.483Z,8.63
2018-07-29T11:08:14.709Z,6.30
2018-07-29T11:10:49.780Z,5.60
2018-07-29T11:13:24.714Z,6.33
2018-07-29T11:15:59.859Z,8.93
2018-07-29T11:18:34.345Z,4.97
2018-07-29T11:21:09.127Z,7.67
2018-07-29T11:23:44.260Z,6.13
2018-07-29T11:26:19.621Z,6.00
2018-07-29T11:28:53.902Z,7.10
2018-07-29T11:31:28.633Z,7.10
2018-07-29T11:34:04.179Z,5.80
2018-07-29T11:36:38.979Z,5.33
2018-07-29T11:39:13.530Z,6.63
2018-07-29T11:41:48.334Z,6.90
2018-07-29T11:44:22.949Z,4.97
2018-07-29T11:46:57.656Z,5.77
2018-07-29T11:49:32.536Z,7.10
2018-07-29T11:52:07.384Z,5.50
2018-07-29T11:54:42.013Z,5.20
2018-07-29T11:57:16.731Z,7.33
2018-07-29T11:59:51.473Z,6.30
2018-07-29T12:02:26.386Z,5.03
2018-07-29T12:05:00.904Z,5.80
2018-07-29T12:07:36.076Z,6.67
2018-07-29T12:10:11.608Z,6.07
2018-07-29T12:12:46.758Z,7.00
2018-07-29T12:15:21.402Z,5.53
2018-07-29T12:17:55.785Z,5.87
2018-07-29T12:20:30.706Z,5.13
2018-07-29T12:23:05.784Z,5.60
2018-07-29T12:25:40.017Z,6.60
2018-07-29T12:28:15.282Z,5.50
2018-07-29T12:30:50.461Z,6.00
2018-07-29T12:33:25.074Z,7.23
2018-07-29T12:35:59.865Z,7.30
2018-07-29T12:38:34.396Z,5.17
2018-07-29T12:41:09.094Z,5.73
2018-07-29T12:43:43.630Z,6.00
2018-07-29T12:46:18.321Z,4.83
2018-07-29T12:48:53.452Z,7.20
2018-07-29T12:51:27.637Z,5.57
2018-07-29T12:54:03.424Z,5.50
2018-07-29T12:56:38.187Z,6.50
2018-07-29T12:59:13.138Z,5.40
2018-07-29T13:01:47.495Z,6.27
2018-07-29T13:04:22.456Z,5.17
2018-07-29T13:06:56.966Z,5.00
2018-07-29T13:09:31.872Z,5.10
2018-07-29T13:12:07.336Z,5.17
2018-07-29T13:14:42.016Z,4.60
2018-07-29T13:17:17.118Z,5.57
2018-07-29T13:19:51.983Z,8.00
2018-07-29T13:22:26.956Z,4.60
2018-07-29T13:25:02.013Z,4.97
2018-07-29T13:27:36.914Z,6.57
2018-07-29T13:30:11.126Z,5.60
2018-07-29T13:32:45.553Z,6.20
2018-07-29T13:35:19.975Z,5.27
2018-07-29T13:37:54.946Z,5.40
2018-07-29T13:40:29.787Z,6.93
2018-07-29T13:43:04.391Z,7.40
2018-07-29T13:45:39.339Z,5.17
2018-07-29T13:48:13.762Z,6.07
2018-07-29T13:50:48.381Z,5.47
2018-07-29T13:53:23.186Z,4.90
2018-07-29T13:55:58.531Z,5.70
2018-07-29T13:58:33.601Z,6.73
2018-07-29T14:01:08.498Z,5.50
2018-07-29T14:03:42.924Z,6.03
2018-07-29T14:06:17.641Z,5.57
2018-07-29T14:08:52.257Z,6.30
2018-07-29T14:11:27.153Z,5.43
2018-07-29T14:14:01.641Z,5.50
2018-07-29T14:16:36.689Z,4.80
2018-07-29T14:19:11.470Z,5.60
2018-07-29T14:21:45.726Z,6.03
2018-07-29T14:24:20.410Z,7.57
2018-07-29T14:26:55.341Z,7.70
2018-07-29T14:29:30.153Z,5.50
2018-07-29T14:32:05.627Z,4.77
2018-07-29T14:34:39.749Z,5.87
2018-07-29T14:37:14.145Z,5.37
2018-07-29T14:39:48.932Z,6.60
2018-07-29T14:42:23.853Z,4.63
2018-07-29T14:44:58.529Z,4.90
2018-07-29T14:47:33.334Z,6.03
2018-07-29T14:50:08.066Z,5.43
2018-07-29T14:52:42.548Z,5.00
2018-07-29T14:55:17.360Z,5.67
2018-07-29T14:57:52.032Z,5.67
2018-07-29T15:00:26.948Z,5.37
2018-07-29T15:03:01.346Z,5.57
2018-07-29T15:05:35.996Z,6.40
2018-07-29T15:08:10.814Z,7.10
2018-07-29T15:10:45.470Z,5.47
2018-07-29T15:13:20.114Z,6.37
2018-07-29T15:15:54.914Z,5.53
2018-07-29T15:18:29.502Z,5.93
2018-07-29T15:21:04.073Z,6.67
2018-07-29T15:23:39.338Z,5.67
2018-07-29T15:26:14.398Z,5.43
2018-07-29T15:28:49.139Z,5.50
2018-07-29T15:31:23.873Z,11.50
2018-07-29T15:33:58.990Z,5.97
2018-07-29T15:36:33.574Z,5.27
2018-07-29T15:39:09.554Z,6.00
2018-07-29T15:41:44.461Z,9.17
2018-07-29T15:44:19.440Z,6.17
2018-07-29T15:46:53.980Z,5.80
2018-07-29T15:49:29.382Z,7.33
2018-07-29T15:52:03.944Z,6.80
2018-07-29T15:54:39.259Z,6.30
2018-07-29T15:57:14.294Z,5.80
2018-07-29T15:59:49.329Z,7.70
2018-07-29T16:02:24.048Z,6.73
2018-07-29T16:04:58.283Z,6.27
2018-07-29T16:07:33.068Z,5.87
2018-07-29T16:10:14.856Z,6.40
2018-07-29T16:12:50.047Z,5.23
2018-07-29T16:15:24.513Z,6.03
2018-07-29T16:17:59.688Z,8.40
2018-07-29T16:20:33.959Z,9.10
2018-07-29T16:23:09.278Z,5.67
2018-07-29T16:25:44.440Z,5.80
2018-07-29T16:28:19.837Z,5.70
2018-07-29T16:31:01.473Z,5.67
2018-07-29T16:33:36.712Z,5.80
2018-07-29T16:36:11.332Z,5.70
2018-07-29T16:38:46.435Z,9.33
2018-07-29T16:41:20.602Z,6.13
2018-07-29T16:43:55.183Z,5.70
2018-07-29T16:46:29.975Z,6.13
2018-07-29T16:49:04.772Z,7.57
2018-07-29T16:51:39.516Z,6.63
2018-07-29T16:54:14.732Z,6.10
2018-07-29T16:56:49.646Z,8.40
2018-07-29T16:59:24.892Z,5.90
2018-07-29T17:01:59.656Z,5.77
2018-07-29T17:04:34.371Z,6.03
2018-07-29T17:07:08.619Z,6.17
2018-07-29T17:09:42.973Z,6.77
2018-07-29T17:12:17.854Z,6.87
2018-07-29T17:14:52.421Z,6.37
2018-07-29T17:17:26.956Z,6.03
2018-07-29T17:20:01.511Z,7.73
2018-07-29T17:22:35.971Z,6.00
2018-07-29T17:25:10.810Z,6.53
2018-07-29T17:27:45.289Z,5.80
2018-07-29T17:30:20.192Z,6.63
2018-07-29T17:32:54.760Z,7.33
2018-07-29T17:35:29.626Z,6.00
2018-07-29T17:38:04.471Z,6.13
2018-07-29T17:40:39.135Z,7.93
2018-07-29T17:43:13.714Z,6.30
2018-07-29T17:45:48.502Z,7.30
2018-07-29T17:48:23.401Z,6.43
2018-07-29T17:50:57.976Z,8.20
2018-07-29T17:53:32.698Z,7.13
2018-07-29T17:56:07.807Z,6.27
2018-07-29T17:58:42.416Z,5.93
2018-07-29T18:01:17.472Z,7.20
2018-07-29T18:03:51.889Z,6.83
2018-07-29T18:06:26.868Z,6.40
2018-07-29T18:09:01.645Z,8.63
2018-07-29T18:11:36.304Z,6.03
2018-07-29T18:14:12.793Z,6.37
2018-07-29T18:16:47.546Z,6.60
2018-07-29T18:19:22.913Z,7.23
2018-07-29T18:21:58.002Z,7.23
2018-07-29T18:24:32.048Z,6.50
2018-07-29T18:27:06.733Z,6.23
2018-07-29T18:29:41.438Z,7.87
2018-07-29T18:32:16.110Z,6.60
2018-07-29T18:34:50.952Z,6.20
2018-07-29T18:37:25.308Z,9.60
2018-07-29T18:40:00.820Z,6.80
2018-07-29T18:42:35.777Z,7.50
2018-07-29T18:45:10.589Z,6.37
2018-07-29T18:47:45.784Z,6.07
2018-07-29T18:50:20.157Z,8.23
2018-07-29T18:52:55.502Z,7.00
2018-07-29T18:55:30.520Z,6.30
2018-07-29T18:58:05.207Z,6.40
2018-07-29T19:00:40.139Z,7.37
2018-07-29T19:03:14.729Z,7.23
2018-07-29T19:05:49.423Z,8.10
2018-07-29T19:08:24.044Z,9.20
2018-07-29T19:10:59.081Z,7.07
2018-07-29T19:13:33.707Z,6.50
2018-07-29T19:16:08.598Z,7.43
2018-07-29T19:18:44.435Z,6.43
2018-07-29T19:21:19.610Z,8.03
2018-07-29T19:23:54.384Z,7.03
2018-07-29T19:26:29.662Z,6.90
2018-07-29T19:29:05.933Z,6.73
2018-07-29T19:31:41.654Z,6.73
2018-07-29T19:34:17.218Z,7.30
2018-07-29T19:36:53.098Z,7.53
2018-07-29T19:39:28.358Z,8.47
2018-07-29T19:42:03.995Z,11.30
2018-07-29T19:44:38.617Z,9.27
2018-07-29T19:47:13.640Z,9.40
2018-07-29T19:49:52.007Z,11.07
2018-07-29T19:52:27.594Z,11.47
2018-07-29T19:55:02.349Z,9.53
2018-07-29T19:57:37.993Z,10.27
2018-07-29T20:00:13.051Z,9.77
2018-07-29T20:02:48.529Z,10.97
2018-07-29T20:05:22.959Z,12.77
2018-07-29T20:07:57.525Z,13.47
2018-07-29T20:10:32.069Z,12.90
2018-07-29T20:13:06.796Z,14.80
2018-07-29T20:15:41.674Z,12.07
2018-07-29T20:18:16.076Z,15.50
2018-07-29T20:20:51.028Z,16.70
2018-07-29T20:23:25.735Z,14.53
2018-07-29T20:26:00.262Z,17.80
2018-07-29T20:28:35.567Z,17.40
2018-07-29T20:31:10.467Z,16.13
2018-07-29T20:33:45.524Z,16.20
2018-07-29T20:36:20.497Z,16.80
2018-07-29T20:38:55.138Z,17.57
2018-07-29T20:41:30.336Z,16.17
2018-07-29T20:44:04.990Z,14.27
2018-07-29T20:46:39.179Z,14.23
2018-07-29T20:49:14.090Z,13.20
2018-07-29T20:51:48.830Z,15.20
2018-07-29T20:54:23.751Z,19.03
2018-07-29T20:56:58.357Z,16.27
2018-07-29T20:59:33.188Z,17.70
2018-07-29T21:02:07.785Z,13.83
2018-07-29T21:04:42.529Z,14.73
2018-07-29T21:07:17.408Z,14.60
2018-07-29T21:09:52.329Z,12.97
2018-07-29T21:12:26.856Z,14.00
2018-07-29T21:15:01.504Z,14.57
2018-07-29T21:17:36.236Z,14.17
2018-07-29T21:20:11.392Z,14.97
2018-07-29T21:22:45.779Z,14.03
2018-07-29T21:25:20.656Z,13.70
2018-07-29T21:27:55.739Z,14.03
2018-07-29T21:30:30.391Z,16.33
2018-07-29T21:33:04.911Z,14.77
2018-07-29T21:35:39.644Z,14.03
2018-07-29T21:38:14.492Z,16.30
2018-07-29T21:40:49.190Z,12.23
2018-07-29T21:43:23.355Z,15.97
2018-07-29T21:45:58.196Z,15.67
2018-07-29T21:48:32.466Z,13.90
2018-07-29T21:51:07.598Z,14.37
2018-07-29T21:53:42.339Z,12.50
2018-07-29T21:56:17.742Z,12.07
2018-07-29T21:58:51.944Z,14.77
2018-07-29T22:01:26.105Z,15.20
2018-07-29T22:04:00.640Z,12.87
2018-07-29T22:06:35.467Z,13.97
2018-07-29T22:09:11.046Z,10.53
2018-07-29T22:11:45.677Z,13.00
2018-07-29T22:14:20.371Z,14.70
2018-07-29T22:16:55.085Z,11.40
2018-07-29T22:19:30.395Z,13.90
2018-07-29T22:22:05.370Z,11.67
2018-07-29T22:24:44.568Z,11.90
2018-07-29T22:27:18.937Z,14.63
2018-07-29T22:29:58.963Z,13.03
2018-07-29T22:32:33.933Z,15.03
2018-07-29T22:35:08.897Z,16.00
2018-07-29T22:37:43.574Z,11.90
2018-07-29T22:40:18.249Z,13.13
2018-07-29T22:42:53.142Z,14.47
2018-07-29T22:45:27.915Z,12.13
2018-07-29T22:48:02.367Z,12.97
2018-07-29T22:50:37.580Z,12.93
2018-07-29T22:53:11.697Z,10.90
2018-07-29T22:55:46.926Z,17.43
2018-07-29T22:58:21.826Z,13.80
2018-07-29T23:00:56.093Z,16.00
2018-07-29T23:03:30.439Z,14.77
2018-07-29T23:06:05.165Z,13.30
2018-07-29T23:08:39.601Z,12.03
2018-07-29T23:11:14.344Z,15.20
2018-07-29T23:13:48.780Z,14.67
2018-07-29T23:16:23.654Z,12.93
2018-07-29T23:18:58.470Z,15.27
2018-07-29T23:21:33.094Z,13.30
2018-07-29T23:24:07.416Z,13.67
2018-07-29T23:26:42.250Z,17.60
2018-07-29T23:29:16.929Z,15.33
2018-07-29T23:31:51.556Z,13.07
2018-07-29T23:34:26.357Z,12.93
2018-07-29T23:37:01.053Z,12.00
2018-07-29T23:39:36.083Z,12.40
2018-07-29T23:42:10.786Z,13.07
2018-07-29T23:44:45.479Z,13.10
2018-07-29T23:47:20.060Z,13.17
2018-07-29T23:49:54.753Z,13.07
2018-07-29T23:52:29.432Z,13.13
2018-07-29T23:55:04.717Z,11.53
2018-07-29T23:57:39.181Z,11.17
